sensor_id;sensor_type;location;lat;lon;timestamp;P1;durP1;ratioP1;P2;durP2;ratioP2
72635;SDS011;60679;48.888;15.544;2024-03-06T00:00:01;8.07;;;3.58;;
72635;SDS011;60679;48.888;15.544;2024-03-06T00:02:28;6.38;;;2.90;;
72635;SDS011;60679;48.888;15.544;2024-03-06T00:04:54;7.43;;;2.90;;
72635;SDS011;60679;48.888;15.544;2024-03-06T00:07:19;8.40;;;4.73;;
72635;SDS011;60679;48.888;15.544;2024-03-06T00:09:45;6.37;;;2.97;;
72635;SDS011;60679;48.888;15.544;2024-03-06T00:12:10;10.98;;;4.68;;
72635;SDS011;60679;48.888;15.544;2024-03-06T00:14:36;10.23;;;4.50;;
72635;SDS011;60679;48.888;15.544;2024-03-06T00:17:01;13.87;;;5.43;;
72635;SDS011;60679;48.888;15.544;2024-03-06T00:19:29;8.60;;;3.90;;
72635;SDS011;60679;48.888;15.544;2024-03-06T00:21:55;6.85;;;3.85;;
72635;SDS011;60679;48.888;15.544;2024-03-06T00:24:21;9.47;;;4.67;;
72635;SDS011;60679;48.888;15.544;2024-03-06T00:26:48;9.00;;;4.03;;
72635;SDS011;60679;48.888;15.544;2024-03-06T00:29:13;5.87;;;3.33;;
72635;SDS011;60679;48.888;15.544;2024-03-06T00:31:43;9.43;;;3.65;;
72635;SDS011;60679;48.888;15.544;2024-03-06T00:34:12;7.05;;;2.95;;
72635;SDS011;60679;48.888;15.544;2024-03-06T00:36:41;10.65;;;4.85;;
72635;SDS011;60679;48.888;15.544;2024-03-06T00:39:08;6.47;;;2.93;;
72635;SDS011;60679;48.888;15.544;2024-03-06T00:41:34;12.10;;;2.88;;
72635;SDS011;60679;48.888;15.544;2024-03-06T00:44:00;10.70;;;4.47;;
72635;SDS011;60679;48.888;15.544;2024-03-06T00:46:26;11.07;;;3.97;;
72635;SDS011;60679;48.888;15.544;2024-03-06T00:48:57;9.57;;;4.20;;
72635;SDS011;60679;48.888;15.544;2024-03-06T00:51:23;8.33;;;3.77;;
72635;SDS011;60679;48.888;15.544;2024-03-06T00:53:48;10.52;;;4.45;;
72635;SDS011;60679;48.888;15.544;2024-03-06T00:56:14;10.73;;;5.00;;
72635;SDS011;60679;48.888;15.544;2024-03-06T00:58:39;8.33;;;3.13;;
72635;SDS011;60679;48.888;15.544;2024-03-06T01:01:08;10.45;;;4.05;;
72635;SDS011;60679;48.888;15.544;2024-03-06T01:03:33;6.57;;;3.50;;
72635;SDS011;60679;48.888;15.544;2024-03-06T01:05:59;8.05;;;4.65;;
72635;SDS011;60679;48.888;15.544;2024-03-06T01:08:24;7.10;;;3.60;;
72635;SDS011;60679;48.888;15.544;2024-03-06T01:10:50;9.27;;;3.27;;
72635;SDS011;60679;48.888;15.544;2024-03-06T01:13:17;10.55;;;4.45;;
72635;SDS011;60679;48.888;15.544;2024-03-06T01:15:43;9.82;;;5.28;;
72635;SDS011;60679;48.888;15.544;2024-03-06T01:18:09;11.25;;;5.15;;
72635;SDS011;60679;48.888;15.544;2024-03-06T01:20:34;10.18;;;4.45;;
72635;SDS011;60679;48.888;15.544;2024-03-06T01:23:01;10.07;;;3.78;;
72635;SDS011;60679;48.888;15.544;2024-03-06T01:25:26;13.83;;;4.17;;
72635;SDS011;60679;48.888;15.544;2024-03-06T01:27:52;17.53;;;6.13;;
72635;SDS011;60679;48.888;15.544;2024-03-06T01:30:17;12.53;;;5.30;;
72635;SDS011;60679;48.888;15.544;2024-03-06T01:32:43;12.93;;;6.40;;
72635;SDS011;60679;48.888;15.544;2024-03-06T01:35:08;10.87;;;3.83;;
72635;SDS011;60679;48.888;15.544;2024-03-06T01:37:34;6.38;;;3.25;;
72635;SDS011;60679;48.888;15.544;2024-03-06T01:39:59;8.20;;;5.13;;
72635;SDS011;60679;48.888;15.544;2024-03-06T01:42:25;26.33;;;5.47;;
72635;SDS011;60679;48.888;15.544;2024-03-06T01:44:50;11.80;;;5.20;;
72635;SDS011;60679;48.888;15.544;2024-03-06T01:47:16;13.23;;;6.07;;
72635;SDS011;60679;48.888;15.544;2024-03-06T01:49:42;18.30;;;5.83;;
72635;SDS011;60679;48.888;15.544;2024-03-06T01:52:09;11.45;;;4.60;;
72635;SDS011;60679;48.888;15.544;2024-03-06T01:54:42;9.30;;;4.22;;
72635;SDS011;60679;48.888;15.544;2024-03-06T01:57:12;12.68;;;5.65;;
72635;SDS011;60679;48.888;15.544;2024-03-06T01:59:40;11.88;;;4.80;;
72635;SDS011;60679;48.888;15.544;2024-03-06T02:02:06;25.52;;;12.50;;
72635;SDS011;60679;48.888;15.544;2024-03-06T02:04:33;190.77;;;78.85;;
72635;SDS011;60679;48.888;15.544;2024-03-06T02:06:59;126.63;;;62.73;;
72635;SDS011;60679;48.888;15.544;2024-03-06T02:09:25;232.45;;;98.60;;
72635;SDS011;60679;48.888;15.544;2024-03-06T02:11:50;199.10;;;84.70;;
72635;SDS011;60679;48.888;15.544;2024-03-06T02:14:17;121.75;;;64.25;;
72635;SDS011;60679;48.888;15.544;2024-03-06T02:16:43;177.20;;;81.43;;
72635;SDS011;60679;48.888;15.544;2024-03-06T02:19:08;221.37;;;94.37;;
72635;SDS011;60679;48.888;15.544;2024-03-06T02:21:40;171.85;;;79.57;;
72635;SDS011;60679;48.888;15.544;2024-03-06T02:24:06;312.80;;;129.77;;
72635;SDS011;60679;48.888;15.544;2024-03-06T02:26:33;387.40;;;161.93;;
72635;SDS011;60679;48.888;15.544;2024-03-06T02:28:58;439.13;;;182.43;;
72635;SDS011;60679;48.888;15.544;2024-03-06T02:31:24;133.88;;;67.53;;
72635;SDS011;60679;48.888;15.544;2024-03-06T02:33:50;224.27;;;93.43;;
72635;SDS011;60679;48.888;15.544;2024-03-06T02:36:16;209.77;;;88.03;;
72635;SDS011;60679;48.888;15.544;2024-03-06T02:38:42;172.55;;;75.72;;
72635;SDS011;60679;48.888;15.544;2024-03-06T02:41:08;81.10;;;48.60;;
72635;SDS011;60679;48.888;15.544;2024-03-06T02:43:34;166.05;;;74.65;;
72635;SDS011;60679;48.888;15.544;2024-03-06T02:46:00;72.18;;;45.95;;
72635;SDS011;60679;48.888;15.544;2024-03-06T02:48:25;92.60;;;52.07;;
72635;SDS011;60679;48.888;15.544;2024-03-06T02:50:51;154.73;;;69.28;;
72635;SDS011;60679;48.888;15.544;2024-03-06T02:53:17;48.25;;;26.65;;
72635;SDS011;60679;48.888;15.544;2024-03-06T02:55:43;72.13;;;44.77;;
72635;SDS011;60679;48.888;15.544;2024-03-06T02:58:08;16.20;;;8.43;;
72635;SDS011;60679;48.888;15.544;2024-03-06T03:00:39;52.38;;;31.55;;
72635;SDS011;60679;48.888;15.544;2024-03-06T03:03:06;28.17;;;17.73;;
72635;SDS011;60679;48.888;15.544;2024-03-06T03:05:31;53.72;;;34.15;;
72635;SDS011;60679;48.888;15.544;2024-03-06T03:07:58;24.75;;;18.60;;
72635;SDS011;60679;48.888;15.544;2024-03-06T03:10:24;21.30;;;11.40;;
72635;SDS011;60679;48.888;15.544;2024-03-06T03:12:49;15.50;;;7.23;;
72635;SDS011;60679;48.888;15.544;2024-03-06T03:15:16;16.75;;;5.90;;
72635;SDS011;60679;48.888;15.544;2024-03-06T03:17:41;14.10;;;6.00;;
72635;SDS011;60679;48.888;15.544;2024-03-06T03:20:07;10.68;;;3.75;;
72635;SDS011;60679;48.888;15.544;2024-03-06T03:22:36;14.20;;;5.35;;
72635;SDS011;60679;48.888;15.544;2024-03-06T03:25:03;12.18;;;5.35;;
72635;SDS011;60679;48.888;15.544;2024-03-06T03:27:32;13.15;;;4.90;;
72635;SDS011;60679;48.888;15.544;2024-03-06T03:30:01;8.38;;;4.57;;
72635;SDS011;60679;48.888;15.544;2024-03-06T03:32:26;7.22;;;4.05;;
72635;SDS011;60679;48.888;15.544;2024-03-06T03:34:53;8.93;;;4.13;;
72635;SDS011;60679;48.888;15.544;2024-03-06T03:37:18;7.88;;;4.00;;
72635;SDS011;60679;48.888;15.544;2024-03-06T03:39:44;7.83;;;4.53;;
72635;SDS011;60679;48.888;15.544;2024-03-06T03:42:10;18.20;;;4.93;;
72635;SDS011;60679;48.888;15.544;2024-03-06T03:44:35;8.67;;;4.27;;
72635;SDS011;60679;48.888;15.544;2024-03-06T03:47:01;7.23;;;4.13;;
72635;SDS011;60679;48.888;15.544;2024-03-06T03:49:27;10.88;;;3.80;;
72635;SDS011;60679;48.888;15.544;2024-03-06T03:51:52;10.53;;;3.70;;
72635;SDS011;60679;48.888;15.544;2024-03-06T03:54:18;7.32;;;3.88;;
72635;SDS011;60679;48.888;15.544;2024-03-06T03:56:45;9.10;;;4.05;;
72635;SDS011;60679;48.888;15.544;2024-03-06T03:59:10;9.57;;;4.07;;
72635;SDS011;60679;48.888;15.544;2024-03-06T04:01:36;11.53;;;5.27;;
72635;SDS011;60679;48.888;15.544;2024-03-06T04:04:01;13.27;;;4.90;;
72635;SDS011;60679;48.888;15.544;2024-03-06T04:06:27;6.22;;;3.50;;
72635;SDS011;60679;48.888;15.544;2024-03-06T04:08:52;7.50;;;3.40;;
72635;SDS011;60679;48.888;15.544;2024-03-06T04:11:18;12.73;;;4.00;;
72635;SDS011;60679;48.888;15.544;2024-03-06T04:13:43;5.22;;;2.80;;
72635;SDS011;60679;48.888;15.544;2024-03-06T04:16:09;10.93;;;4.47;;
72635;SDS011;60679;48.888;15.544;2024-03-06T04:18:34;10.23;;;3.40;;
72635;SDS011;60679;48.888;15.544;2024-03-06T04:21:04;7.78;;;3.17;;
72635;SDS011;60679;48.888;15.544;2024-03-06T04:23:30;8.57;;;4.87;;
72635;SDS011;60679;48.888;15.544;2024-03-06T04:25:56;8.90;;;3.58;;
72635;SDS011;60679;48.888;15.544;2024-03-06T04:28:21;9.97;;;4.27;;
72635;SDS011;60679;48.888;15.544;2024-03-06T04:30:47;11.00;;;4.60;;
72635;SDS011;60679;48.888;15.544;2024-03-06T04:33:12;13.63;;;5.63;;
72635;SDS011;60679;48.888;15.544;2024-03-06T04:35:40;8.15;;;3.60;;
72635;SDS011;60679;48.888;15.544;2024-03-06T04:38:06;9.98;;;5.32;;
72635;SDS011;60679;48.888;15.544;2024-03-06T04:40:31;11.68;;;4.35;;
72635;SDS011;60679;48.888;15.544;2024-03-06T04:42:57;12.73;;;4.63;;
72635;SDS011;60679;48.888;15.544;2024-03-06T04:45:23;10.97;;;4.47;;
72635;SDS011;60679;48.888;15.544;2024-03-06T04:47:48;11.77;;;4.90;;
72635;SDS011;60679;48.888;15.544;2024-03-06T04:50:14;9.30;;;3.83;;
72635;SDS011;60679;48.888;15.544;2024-03-06T04:52:40;8.00;;;3.80;;
72635;SDS011;60679;48.888;15.544;2024-03-06T04:55:07;8.73;;;3.83;;
72635;SDS011;60679;48.888;15.544;2024-03-06T04:57:36;7.95;;;4.18;;
72635;SDS011;60679;48.888;15.544;2024-03-06T05:00:06;8.50;;;4.32;;
72635;SDS011;60679;48.888;15.544;2024-03-06T05:02:33;8.48;;;4.35;;
72635;SDS011;60679;48.888;15.544;2024-03-06T05:05:02;10.77;;;4.68;;
72635;SDS011;60679;48.888;15.544;2024-03-06T05:07:33;17.80;;;5.43;;
72635;SDS011;60679;48.888;15.544;2024-03-06T05:09:59;10.60;;;4.70;;
72635;SDS011;60679;48.888;15.544;2024-03-06T05:12:25;8.60;;;4.73;;
72635;SDS011;60679;48.888;15.544;2024-03-06T05:14:51;10.02;;;4.47;;
72635;SDS011;60679;48.888;15.544;2024-03-06T05:17:18;14.77;;;6.10;;
72635;SDS011;60679;48.888;15.544;2024-03-06T05:19:44;15.82;;;6.15;;
72635;SDS011;60679;48.888;15.544;2024-03-06T05:22:10;9.73;;;4.67;;
72635;SDS011;60679;48.888;15.544;2024-03-06T05:24:38;9.27;;;4.30;;
72635;SDS011;60679;48.888;15.544;2024-03-06T05:27:07;12.18;;;5.18;;
72635;SDS011;60679;48.888;15.544;2024-03-06T05:29:33;11.00;;;4.73;;
72635;SDS011;60679;48.888;15.544;2024-03-06T05:31:58;8.55;;;3.90;;
72635;SDS011;60679;48.888;15.544;2024-03-06T05:34:24;13.07;;;4.53;;
72635;SDS011;60679;48.888;15.544;2024-03-06T05:36:50;10.55;;;4.88;;
72635;SDS011;60679;48.888;15.544;2024-03-06T05:39:15;8.57;;;3.40;;
72635;SDS011;60679;48.888;15.544;2024-03-06T05:41:42;17.90;;;4.25;;
72635;SDS011;60679;48.888;15.544;2024-03-06T05:44:08;10.93;;;4.95;;
72635;SDS011;60679;48.888;15.544;2024-03-06T05:46:34;8.55;;;3.53;;
72635;SDS011;60679;48.888;15.544;2024-03-06T05:49:01;12.65;;;6.78;;
72635;SDS011;60679;48.888;15.544;2024-03-06T05:51:27;7.95;;;4.00;;
72635;SDS011;60679;48.888;15.544;2024-03-06T05:53:52;17.90;;;5.82;;
72635;SDS011;60679;48.888;15.544;2024-03-06T05:56:21;6.23;;;2.93;;
72635;SDS011;60679;48.888;15.544;2024-03-06T05:58:47;10.52;;;4.35;;
72635;SDS011;60679;48.888;15.544;2024-03-06T06:01:17;6.63;;;2.70;;
72635;SDS011;60679;48.888;15.544;2024-03-06T06:03:45;7.60;;;2.23;;
72635;SDS011;60679;48.888;15.544;2024-03-06T06:06:14;3.50;;;1.25;;
72635;SDS011;60679;48.888;15.544;2024-03-06T06:08:40;8.20;;;4.15;;
72635;SDS011;60679;48.888;15.544;2024-03-06T06:11:05;5.23;;;3.03;;
72635;SDS011;60679;48.888;15.544;2024-03-06T06:13:31;5.07;;;2.10;;
72635;SDS011;60679;48.888;15.544;2024-03-06T06:15:59;9.25;;;3.42;;
72635;SDS011;60679;48.888;15.544;2024-03-06T06:18:27;5.53;;;2.50;;
72635;SDS011;60679;48.888;15.544;2024-03-06T06:20:53;6.35;;;2.15;;
72635;SDS011;60679;48.888;15.544;2024-03-06T06:23:21;5.80;;;2.72;;
72635;SDS011;60679;48.888;15.544;2024-03-06T06:25:46;7.67;;;3.90;;
72635;SDS011;60679;48.888;15.544;2024-03-06T06:28:12;11.27;;;3.43;;
72635;SDS011;60679;48.888;15.544;2024-03-06T06:30:37;4.90;;;1.95;;
72635;SDS011;60679;48.888;15.544;2024-03-06T06:33:06;4.83;;;2.13;;
72635;SDS011;60679;48.888;15.544;2024-03-06T06:35:33;6.15;;;2.63;;
72635;SDS011;60679;48.888;15.544;2024-03-06T06:37:59;8.05;;;4.50;;
72635;SDS011;60679;48.888;15.544;2024-03-06T06:40:26;5.85;;;2.03;;
72635;SDS011;60679;48.888;15.544;2024-03-06T06:42:53;7.22;;;2.78;;
72635;SDS011;60679;48.888;15.544;2024-03-06T06:45:19;15.73;;;4.90;;
72635;SDS011;60679;48.888;15.544;2024-03-06T06:47:46;11.93;;;5.50;;
72635;SDS011;60679;48.888;15.544;2024-03-06T06:50:12;8.30;;;3.55;;
72635;SDS011;60679;48.888;15.544;2024-03-06T06:52:38;7.13;;;2.97;;
72635;SDS011;60679;48.888;15.544;2024-03-06T06:55:04;5.75;;;2.78;;
72635;SDS011;60679;48.888;15.544;2024-03-06T06:57:33;8.32;;;4.22;;
72635;SDS011;60679;48.888;15.544;2024-03-06T07:00:00;9.15;;;2.72;;
72635;SDS011;60679;48.888;15.544;2024-03-06T07:02:26;9.98;;;2.90;;
72635;SDS011;60679;48.888;15.544;2024-03-06T07:04:52;8.73;;;2.67;;
72635;SDS011;60679;48.888;15.544;2024-03-06T07:07:18;7.10;;;3.20;;
72635;SDS011;60679;48.888;15.544;2024-03-06T07:09:44;8.85;;;3.03;;
72635;SDS011;60679;48.888;15.544;2024-03-06T07:12:09;15.93;;;7.83;;
72635;SDS011;60679;48.888;15.544;2024-03-06T07:14:35;21.20;;;5.53;;
72635;SDS011;60679;48.888;15.544;2024-03-06T07:17:00;11.68;;;5.82;;
72635;SDS011;60679;48.888;15.544;2024-03-06T07:19:26;8.93;;;4.83;;
72635;SDS011;60679;48.888;15.544;2024-03-06T07:21:52;7.45;;;2.60;;
72635;SDS011;60679;48.888;15.544;2024-03-06T07:24:18;12.52;;;4.07;;
72635;SDS011;60679;48.888;15.544;2024-03-06T07:26:44;6.97;;;4.37;;
72635;SDS011;60679;48.888;15.544;2024-03-06T07:29:10;7.47;;;3.03;;
72635;SDS011;60679;48.888;15.544;2024-03-06T07:31:40;6.05;;;3.00;;
72635;SDS011;60679;48.888;15.544;2024-03-06T07:34:07;6.05;;;2.67;;
72635;SDS011;60679;48.888;15.544;2024-03-06T07:36:33;6.47;;;2.38;;
72635;SDS011;60679;48.888;15.544;2024-03-06T07:39:00;9.57;;;3.88;;
72635;SDS011;60679;48.888;15.544;2024-03-06T07:41:26;11.13;;;4.25;;
72635;SDS011;60679;48.888;15.544;2024-03-06T07:43:52;6.83;;;3.23;;
72635;SDS011;60679;48.888;15.544;2024-03-06T07:46:17;5.35;;;2.40;;
72635;SDS011;60679;48.888;15.544;2024-03-06T07:48:43;4.95;;;2.70;;
72635;SDS011;60679;48.888;15.544;2024-03-06T07:51:09;8.75;;;3.58;;
72635;SDS011;60679;48.888;15.544;2024-03-06T07:53:35;7.70;;;3.10;;
72635;SDS011;60679;48.888;15.544;2024-03-06T07:56:00;5.25;;;2.75;;
72635;SDS011;60679;48.888;15.544;2024-03-06T07:58:26;7.65;;;3.90;;
72635;SDS011;60679;48.888;15.544;2024-03-06T08:00:52;7.50;;;3.85;;
72635;SDS011;60679;48.888;15.544;2024-03-06T08:03:21;5.93;;;3.10;;
72635;SDS011;60679;48.888;15.544;2024-03-06T08:05:50;8.88;;;3.00;;
72635;SDS011;60679;48.888;15.544;2024-03-06T08:08:20;7.88;;;3.55;;
72635;SDS011;60679;48.888;15.544;2024-03-06T08:10:46;8.93;;;3.53;;
72635;SDS011;60679;48.888;15.544;2024-03-06T08:13:12;6.03;;;3.13;;
72635;SDS011;60679;48.888;15.544;2024-03-06T08:15:37;11.45;;;3.33;;
72635;SDS011;60679;48.888;15.544;2024-03-06T08:18:03;6.50;;;3.37;;
72635;SDS011;60679;48.888;15.544;2024-03-06T08:20:28;6.90;;;2.78;;
72635;SDS011;60679;48.888;15.544;2024-03-06T08:22:55;7.03;;;3.87;;
72635;SDS011;60679;48.888;15.544;2024-03-06T08:25:21;6.43;;;2.92;;
72635;SDS011;60679;48.888;15.544;2024-03-06T08:27:48;7.20;;;3.20;;
72635;SDS011;60679;48.888;15.544;2024-03-06T08:30:13;9.07;;;3.45;;
72635;SDS011;60679;48.888;15.544;2024-03-06T08:32:39;7.17;;;3.67;;
72635;SDS011;60679;48.888;15.544;2024-03-06T08:35:08;5.13;;;2.45;;
72635;SDS011;60679;48.888;15.544;2024-03-06T08:37:36;10.65;;;3.15;;
72635;SDS011;60679;48.888;15.544;2024-03-06T08:40:03;10.85;;;4.47;;
72635;SDS011;60679;48.888;15.544;2024-03-06T08:42:29;10.32;;;3.70;;
72635;SDS011;60679;48.888;15.544;2024-03-06T08:44:55;5.82;;;2.88;;
72635;SDS011;60679;48.888;15.544;2024-03-06T08:47:21;10.20;;;3.67;;
72635;SDS011;60679;48.888;15.544;2024-03-06T08:49:47;11.35;;;3.08;;
72635;SDS011;60679;48.888;15.544;2024-03-06T08:52:13;5.73;;;3.03;;
72635;SDS011;60679;48.888;15.544;2024-03-06T08:54:39;6.50;;;2.70;;
72635;SDS011;60679;48.888;15.544;2024-03-06T08:57:06;9.23;;;3.10;;
72635;SDS011;60679;48.888;15.544;2024-03-06T08:59:33;7.20;;;4.00;;
72635;SDS011;60679;48.888;15.544;2024-03-06T09:02:10;6.88;;;2.67;;
72635;SDS011;60679;48.888;15.544;2024-03-06T09:04:37;8.77;;;3.47;;
72635;SDS011;60679;48.888;15.544;2024-03-06T09:07:03;11.25;;;3.42;;
72635;SDS011;60679;48.888;15.544;2024-03-06T09:09:29;8.20;;;3.47;;
72635;SDS011;60679;48.888;15.544;2024-03-06T09:11:54;12.00;;;3.63;;
72635;SDS011;60679;48.888;15.544;2024-03-06T09:14:20;9.45;;;2.80;;
72635;SDS011;60679;48.888;15.544;2024-03-06T09:16:45;11.93;;;4.47;;
72635;SDS011;60679;48.888;15.544;2024-03-06T09:19:11;9.30;;;3.67;;
72635;SDS011;60679;48.888;15.544;2024-03-06T09:21:36;11.05;;;3.92;;
72635;SDS011;60679;48.888;15.544;2024-03-06T09:24:02;12.20;;;3.67;;
72635;SDS011;60679;48.888;15.544;2024-03-06T09:26:27;10.67;;;3.73;;
72635;SDS011;60679;48.888;15.544;2024-03-06T09:28:53;6.43;;;2.77;;
72635;SDS011;60679;48.888;15.544;2024-03-06T09:31:18;7.20;;;3.58;;
72635;SDS011;60679;48.888;15.544;2024-03-06T09:33:44;10.02;;;2.88;;
72635;SDS011;60679;48.888;15.544;2024-03-06T09:36:11;8.18;;;4.18;;
72635;SDS011;60679;48.888;15.544;2024-03-06T09:38:38;7.80;;;3.73;;
72635;SDS011;60679;48.888;15.544;2024-03-06T09:41:05;7.00;;;3.15;;
72635;SDS011;60679;48.888;15.544;2024-03-06T09:43:33;5.55;;;3.15;;
72635;SDS011;60679;48.888;15.544;2024-03-06T09:45:58;7.20;;;3.70;;
72635;SDS011;60679;48.888;15.544;2024-03-06T09:48:24;8.57;;;4.07;;
72635;SDS011;60679;48.888;15.544;2024-03-06T09:50:49;10.10;;;4.63;;
72635;SDS011;60679;48.888;15.544;2024-03-06T09:53:17;10.80;;;4.80;;
72635;SDS011;60679;48.888;15.544;2024-03-06T09:55:46;12.63;;;4.80;;
72635;SDS011;60679;48.888;15.544;2024-03-06T09:58:11;9.57;;;3.88;;
72635;SDS011;60679;48.888;15.544;2024-03-06T10:00:37;8.40;;;3.23;;
72635;SDS011;60679;48.888;15.544;2024-03-06T10:03:03;11.18;;;4.97;;
72635;SDS011;60679;48.888;15.544;2024-03-06T10:05:33;7.43;;;3.60;;
72635;SDS011;60679;48.888;15.544;2024-03-06T10:08:02;9.33;;;3.70;;
72635;SDS011;60679;48.888;15.544;2024-03-06T10:10:29;10.27;;;4.07;;
72635;SDS011;60679;48.888;15.544;2024-03-06T10:12:55;10.93;;;4.93;;
72635;SDS011;60679;48.888;15.544;2024-03-06T10:15:22;10.20;;;3.90;;
72635;SDS011;60679;48.888;15.544;2024-03-06T10:17:51;10.65;;;4.22;;
72635;SDS011;60679;48.888;15.544;2024-03-06T10:22:54;8.93;;;3.42;;
72635;SDS011;60679;48.888;15.544;2024-03-06T10:25:23;14.50;;;4.75;;
72635;SDS011;60679;48.888;15.544;2024-03-06T10:30:35;13.88;;;4.35;;
72635;SDS011;60679;48.888;15.544;2024-03-06T10:33:02;10.38;;;4.13;;
72635;SDS011;60679;48.888;15.544;2024-03-06T10:35:39;5.60;;;2.50;;
72635;SDS011;60679;48.888;15.544;2024-03-06T10:38:07;9.88;;;3.90;;
72635;SDS011;60679;48.888;15.544;2024-03-06T10:40:43;6.22;;;2.65;;
72635;SDS011;60679;48.888;15.544;2024-03-06T10:43:09;8.90;;;2.92;;
72635;SDS011;60679;48.888;15.544;2024-03-06T10:48:14;9.00;;;3.05;;
72635;SDS011;60679;48.888;15.544;2024-03-06T10:50:42;8.80;;;3.25;;
72635;SDS011;60679;48.888;15.544;2024-03-06T10:53:15;10.18;;;2.88;;
72635;SDS011;60679;48.888;15.544;2024-03-06T10:55:45;9.25;;;3.42;;
72635;SDS011;60679;48.888;15.544;2024-03-06T10:58:11;10.95;;;3.67;;
72635;SDS011;60679;48.888;15.544;2024-03-06T11:00:41;8.20;;;3.33;;
72635;SDS011;60679;48.888;15.544;2024-03-06T11:03:14;6.68;;;3.47;;
72635;SDS011;60679;48.888;15.544;2024-03-06T11:05:43;8.70;;;2.55;;
72635;SDS011;60679;48.888;15.544;2024-03-06T11:08:13;7.15;;;3.13;;
72635;SDS011;60679;48.888;15.544;2024-03-06T11:10:40;9.10;;;3.85;;
72635;SDS011;60679;48.888;15.544;2024-03-06T11:15:45;7.00;;;3.15;;
72635;SDS011;60679;48.888;15.544;2024-03-06T11:23:33;6.82;;;2.97;;
72635;SDS011;60679;48.888;15.544;2024-03-06T11:26:06;10.80;;;3.17;;
72635;SDS011;60679;48.888;15.544;2024-03-06T11:28:35;8.80;;;3.13;;
72635;SDS011;60679;48.888;15.544;2024-03-06T11:31:24;7.78;;;3.45;;
72635;SDS011;60679;48.888;15.544;2024-03-06T11:33:53;6.50;;;4.03;;
72635;SDS011;60679;48.888;15.544;2024-03-06T11:36:24;15.15;;;3.17;;
72635;SDS011;60679;48.888;15.544;2024-03-06T11:38:55;9.52;;;3.05;;
72635;SDS011;60679;48.888;15.544;2024-03-06T11:44:05;8.80;;;2.63;;
72635;SDS011;60679;48.888;15.544;2024-03-06T11:49:16;10.73;;;4.40;;
72635;SDS011;60679;48.888;15.544;2024-03-06T11:51:57;8.88;;;4.00;;
72635;SDS011;60679;48.888;15.544;2024-03-06T11:54:25;5.95;;;3.10;;
72635;SDS011;60679;48.888;15.544;2024-03-06T11:56:55;7.55;;;2.67;;
72635;SDS011;60679;48.888;15.544;2024-03-06T11:59:25;5.65;;;3.00;;
72635;SDS011;60679;48.888;15.544;2024-03-06T12:01:52;10.70;;;2.90;;
72635;SDS011;60679;48.888;15.544;2024-03-06T12:04:19;7.85;;;3.55;;
72635;SDS011;60679;48.888;15.544;2024-03-06T12:06:46;7.82;;;2.83;;
72635;SDS011;60679;48.888;15.544;2024-03-06T12:09:12;8.98;;;3.63;;
72635;SDS011;60679;48.888;15.544;2024-03-06T12:11:37;8.57;;;3.30;;
72635;SDS011;60679;48.888;15.544;2024-03-06T12:14:03;12.33;;;4.30;;
72635;SDS011;60679;48.888;15.544;2024-03-06T12:16:30;6.85;;;2.72;;
72635;SDS011;60679;48.888;15.544;2024-03-06T12:18:56;8.43;;;3.95;;
72635;SDS011;60679;48.888;15.544;2024-03-06T12:21:32;6.97;;;3.17;;
72635;SDS011;60679;48.888;15.544;2024-03-06T12:24:05;7.97;;;3.63;;
72635;SDS011;60679;48.888;15.544;2024-03-06T12:26:35;5.05;;;2.58;;
72635;SDS011;60679;48.888;15.544;2024-03-06T12:29:08;6.43;;;3.90;;
72635;SDS011;60679;48.888;15.544;2024-03-06T12:31:43;7.93;;;3.10;;
72635;SDS011;60679;48.888;15.544;2024-03-06T12:34:13;7.17;;;3.37;;
72635;SDS011;60679;48.888;15.544;2024-03-06T12:36:44;6.85;;;2.80;;
72635;SDS011;60679;48.888;15.544;2024-03-06T12:39:10;9.38;;;3.10;;
72635;SDS011;60679;48.888;15.544;2024-03-06T12:41:43;4.57;;;2.15;;
72635;SDS011;60679;48.888;15.544;2024-03-06T12:44:09;9.88;;;3.58;;
72635;SDS011;60679;48.888;15.544;2024-03-06T12:46:37;5.60;;;2.23;;
72635;SDS011;60679;48.888;15.544;2024-03-06T12:49:03;5.63;;;2.28;;
72635;SDS011;60679;48.888;15.544;2024-03-06T12:51:31;6.57;;;3.00;;
72635;SDS011;60679;48.888;15.544;2024-03-06T12:54:02;5.22;;;2.13;;
72635;SDS011;60679;48.888;15.544;2024-03-06T12:56:28;6.32;;;2.38;;
72635;SDS011;60679;48.888;15.544;2024-03-06T12:59:03;7.00;;;3.63;;
72635;SDS011;60679;48.888;15.544;2024-03-06T13:01:30;7.57;;;3.40;;
72635;SDS011;60679;48.888;15.544;2024-03-06T13:03:55;9.57;;;3.95;;
72635;SDS011;60679;48.888;15.544;2024-03-06T13:06:21;5.40;;;1.92;;
72635;SDS011;60679;48.888;15.544;2024-03-06T13:08:49;7.03;;;3.38;;
72635;SDS011;60679;48.888;15.544;2024-03-06T13:11:14;8.13;;;2.90;;
72635;SDS011;60679;48.888;15.544;2024-03-06T13:13:40;6.00;;;2.57;;
72635;SDS011;60679;48.888;15.544;2024-03-06T13:16:05;6.60;;;2.20;;
72635;SDS011;60679;48.888;15.544;2024-03-06T13:18:31;10.37;;;3.30;;
72635;SDS011;60679;48.888;15.544;2024-03-06T13:20:57;5.65;;;2.58;;
72635;SDS011;60679;48.888;15.544;2024-03-06T13:23:23;6.57;;;3.10;;
72635;SDS011;60679;48.888;15.544;2024-03-06T13:25:49;7.60;;;2.92;;
72635;SDS011;60679;48.888;15.544;2024-03-06T13:28:14;13.23;;;3.20;;
72635;SDS011;60679;48.888;15.544;2024-03-06T13:30:40;6.33;;;2.47;;
72635;SDS011;60679;48.888;15.544;2024-03-06T13:33:06;5.80;;;2.47;;
72635;SDS011;60679;48.888;15.544;2024-03-06T13:35:34;7.55;;;2.40;;
72635;SDS011;60679;48.888;15.544;2024-03-06T13:38:00;6.97;;;2.00;;
72635;SDS011;60679;48.888;15.544;2024-03-06T13:40:28;5.95;;;2.33;;
72635;SDS011;60679;48.888;15.544;2024-03-06T13:42:53;8.50;;;3.40;;
72635;SDS011;60679;48.888;15.544;2024-03-06T13:45:19;6.20;;;2.13;;
72635;SDS011;60679;48.888;15.544;2024-03-06T13:47:44;10.43;;;2.95;;
72635;SDS011;60679;48.888;15.544;2024-03-06T13:50:19;9.13;;;3.67;;
72635;SDS011;60679;48.888;15.544;2024-03-06T13:52:46;5.93;;;2.58;;
72635;SDS011;60679;48.888;15.544;2024-03-06T13:55:12;7.07;;;3.70;;
72635;SDS011;60679;48.888;15.544;2024-03-06T13:57:41;8.65;;;3.47;;
72635;SDS011;60679;48.888;15.544;2024-03-06T14:00:07;5.13;;;1.73;;
72635;SDS011;60679;48.888;15.544;2024-03-06T14:02:43;8.10;;;3.78;;
72635;SDS011;60679;48.888;15.544;2024-03-06T14:05:10;6.80;;;3.35;;
72635;SDS011;60679;48.888;15.544;2024-03-06T14:07:37;6.60;;;2.80;;
72635;SDS011;60679;48.888;15.544;2024-03-06T14:10:07;13.90;;;2.80;;
72635;SDS011;60679;48.888;15.544;2024-03-06T14:12:36;9.10;;;4.38;;
72635;SDS011;60679;48.888;15.544;2024-03-06T14:15:02;6.72;;;2.78;;
72635;SDS011;60679;48.888;15.544;2024-03-06T14:17:30;8.32;;;3.00;;
72635;SDS011;60679;48.888;15.544;2024-03-06T14:19:55;11.33;;;3.87;;
72635;SDS011;60679;48.888;15.544;2024-03-06T14:22:20;7.87;;;4.30;;
72635;SDS011;60679;48.888;15.544;2024-03-06T14:24:46;6.40;;;3.20;;
72635;SDS011;60679;48.888;15.544;2024-03-06T14:27:12;8.20;;;2.87;;
72635;SDS011;60679;48.888;15.544;2024-03-06T14:29:37;9.90;;;4.57;;
72635;SDS011;60679;48.888;15.544;2024-03-06T14:32:03;11.43;;;4.50;;
72635;SDS011;60679;48.888;15.544;2024-03-06T14:34:29;5.40;;;2.57;;
72635;SDS011;60679;48.888;15.544;2024-03-06T14:36:54;9.32;;;2.80;;
72635;SDS011;60679;48.888;15.544;2024-03-06T14:39:20;8.77;;;3.53;;
72635;SDS011;60679;48.888;15.544;2024-03-06T14:41:50;9.40;;;3.60;;
72635;SDS011;60679;48.888;15.544;2024-03-06T14:44:16;9.25;;;4.45;;
72635;SDS011;60679;48.888;15.544;2024-03-06T14:46:42;10.90;;;5.32;;